createdAt,value
2023-01-04T00:04:40.689Z,39.6
2023-01-04T00:09:41.258Z,39.5
2023-01-04T00:14:41.865Z,39.4
2023-01-04T00:19:42.199Z,39.4
2023-01-04T00:24:42.553Z,39.3
2023-01-04T00:29:42.919Z,39.2
2023-01-04T00:34:43.262Z,39.2
2023-01-04T00:39:43.596Z,39.1
2023-01-04T00:44:44.170Z,39.1
2023-01-04T00:49:44.752Z,39
2023-01-04T00:54:45.324Z,39
2023-01-04T00:59:45.674Z,38.9
2023-01-04T01:04:46.036Z,38.9
2023-01-04T01:09:46.408Z,38.8
2023-01-04T01:14:46.998Z,38.7
2023-01-04T01:19:47.595Z,38.7
2023-01-04T01:24:48.143Z,38.6
2023-01-04T01:29:48.827Z,38.6
2023-01-04T01:34:49.249Z,38.6
2023-01-04T01:39:49.640Z,38.5
2023-01-04T01:44:49.959Z,38.4
2023-01-04T01:49:50.316Z,38.4
2023-01-04T01:54:50.652Z,38.3
2023-01-04T01:59:51.215Z,38.3
2023-01-04T02:04:51.541Z,38.2
2023-01-04T02:09:52.139Z,38.2
2023-01-04T02:14:52.473Z,38.1
2023-01-04T02:19:52.801Z,38.1
2023-01-04T02:24:53.105Z,38.1
2023-01-04T02:29:53.503Z,38
2023-01-04T02:34:58.407Z,37.9
2023-01-04T02:39:59.120Z,37.9
2023-01-04T02:44:59.665Z,37.9
2023-01-04T02:50:04.473Z,37.8
2023-01-04T02:55:05.390Z,37.7
2023-01-04T03:00:05.667Z,37.7
2023-01-04T03:05:05.903Z,37.7
2023-01-04T03:10:06.218Z,37.6
2023-01-04T03:15:06.498Z,37.6
2023-01-04T03:20:06.806Z,37.6
2023-01-04T03:25:07.289Z,37.5
2023-01-04T03:30:07.621Z,37.4
2023-01-04T03:35:07.896Z,37.4
2023-01-04T03:40:08.190Z,37.4
2023-01-04T03:45:10.434Z,37.3
2023-01-04T03:50:10.881Z,37.2
2023-01-04T03:55:11.390Z,37.2
2023-01-04T04:00:11.895Z,37.2
2023-01-04T04:05:12.384Z,37.2
2023-01-04T04:10:12.861Z,37.1
2023-01-04T04:15:13.331Z,37.1
2023-01-04T04:20:13.546Z,37
2023-01-04T04:25:14.029Z,37
2023-01-04T04:30:14.327Z,36.9
2023-01-04T04:35:14.576Z,36.9
2023-01-04T04:40:14.832Z,36.9
2023-01-04T04:45:15.115Z,36.8
2023-01-04T04:50:15.360Z,36.8
2023-01-04T04:55:15.619Z,36.7
2023-01-04T05:00:16.120Z,36.7
2023-01-04T05:05:16.375Z,36.7
2023-01-04T05:10:16.640Z,36.6
2023-01-04T05:15:16.917Z,36.6
2023-01-04T05:20:17.135Z,36.6
2023-01-04T05:25:17.372Z,36.5
2023-01-04T05:30:17.649Z,36.5
2023-01-04T05:35:17.901Z,36.4
2023-01-04T05:40:18.389Z,36.4
2023-01-04T05:45:18.624Z,36.4
2023-01-04T05:50:18.885Z,36.3
2023-01-04T05:55:19.369Z,36.3
2023-01-04T06:00:19.868Z,36.2
2023-01-04T06:05:20.321Z,36.2
2023-01-04T06:10:20.849Z,36.2
2023-01-04T06:15:21.145Z,36.1
2023-01-04T06:20:21.373Z,36.1
2023-01-04T06:25:21.621Z,36.1
2023-01-04T06:30:22.113Z,36.1
2023-01-04T06:35:22.587Z,36
2023-01-04T06:40:23.051Z,36
2023-01-04T06:45:23.529Z,35.9
2023-01-04T06:50:24.067Z,35.9
2023-01-04T06:55:24.317Z,35.9
2023-01-04T07:00:24.585Z,35.9
2023-01-04T07:05:24.806Z,35.8
2023-01-04T07:10:25.291Z,35.7
2023-01-04T07:15:37.896Z,35.7
2023-01-04T07:20:40.200Z,35.7
2023-01-04T07:25:40.429Z,35.7
2023-01-04T07:30:40.652Z,35.7
2023-01-04T07:35:40.888Z,35.6
2023-01-04T07:40:55.673Z,35.6
2023-01-04T07:45:56.381Z,35.6
2023-01-04T07:50:56.645Z,35.5
2023-01-04T07:55:56.867Z,35.5
2023-01-04T08:00:57.065Z,35.4
2023-01-04T08:05:57.425Z,35.4
2023-01-04T08:10:57.624Z,35.4
2023-01-04T08:15:57.894Z,35.4
2023-01-04T08:20:58.653Z,35.3
2023-01-04T08:25:59.213Z,35.3
2023-01-04T08:30:59.784Z,35.2
2023-01-04T08:36:00.029Z,35.2
2023-01-04T08:41:11.452Z,35.2
2023-01-04T08:46:17.194Z,35.2
2023-01-04T08:51:17.423Z,35.1
2023-01-04T08:56:17.607Z,35.1
2023-01-04T09:01:17.959Z,35.1
2023-01-04T09:06:18.576Z,35.1
2023-01-04T09:11:19.018Z,35.1
2023-01-04T09:16:19.296Z,35
2023-01-04T09:21:19.554Z,35
2023-01-04T09:26:20.036Z,34.9
2023-01-04T09:31:20.286Z,34.9
2023-01-04T09:36:22.421Z,34.9
2023-01-04T09:41:22.919Z,34.9
2023-01-04T09:46:23.184Z,34.8
2023-01-04T09:51:23.412Z,34.8
2023-01-04T09:56:23.589Z,34.7
2023-01-04T10:01:24.018Z,34.7
2023-01-04T10:06:24.510Z,34.7
2023-01-04T10:11:25.170Z,34.7
2023-01-04T10:16:44.563Z,34.7
2023-01-04T10:22:02.069Z,34.6
2023-01-04T10:27:02.267Z,34.6
2023-01-04T10:32:04.425Z,34.6
2023-01-04T10:37:06.518Z,34.6
2023-01-04T10:42:06.943Z,34.6
2023-01-04T10:47:07.465Z,34.5
2023-01-04T10:52:07.685Z,34.5
2023-01-04T10:57:08.132Z,34.4
2023-01-04T11:02:08.516Z,34.4
2023-01-04T11:07:09.063Z,34.4
2023-01-04T11:12:11.169Z,34.4
2023-01-04T11:17:13.258Z,34.4
2023-01-04T11:22:15.091Z,34.3
2023-01-04T11:27:19.783Z,34.3
2023-01-04T11:32:22.596Z,34.2
2023-01-04T11:37:24.426Z,34.2
2023-01-04T11:42:26.233Z,34.2
2023-01-04T11:47:28.240Z,34.2
2023-01-04T11:52:29.945Z,34.2
2023-01-04T11:57:31.781Z,34.1
2023-01-04T12:03:02.286Z,34.1
2023-01-04T12:08:04.398Z,34.1
2023-01-04T12:13:06.428Z,34.1
2023-01-04T12:18:08.463Z,34.1
2023-01-04T12:23:10.545Z,34
2023-01-04T12:28:14.702Z,34
2023-01-04T12:33:18.448Z,34
2023-01-04T12:38:20.531Z,33.9
2023-01-04T12:43:22.380Z,33.9
2023-01-04T12:48:24.442Z,33.9
2023-01-04T12:53:30.489Z,33.9
2023-01-04T13:04:06.231Z,33.8
2023-01-04T13:09:08.225Z,33.8
2023-01-04T13:14:10.049Z,33.7
2023-01-04T13:19:11.851Z,33.7
2023-01-04T13:24:13.690Z,33.7
2023-01-04T13:29:15.772Z,33.7
2023-01-04T13:34:17.615Z,33.7
2023-01-04T13:39:19.655Z,33.7
2023-01-04T13:44:23.688Z,33.6
2023-01-04T13:49:28.088Z,33.6
2023-01-04T13:54:33.323Z,33.6
2023-01-04T13:59:37.134Z,33.6
2023-01-04T14:04:38.950Z,33.6
2023-01-04T14:09:41.014Z,33.5
2023-01-04T14:14:43.090Z,33.5
2023-01-04T14:19:45.188Z,33.5
2023-01-04T14:25:17.089Z,33.4
2023-01-04T14:30:19.202Z,33.4
2023-01-04T14:35:21.273Z,33.4
2023-01-04T14:40:23.100Z,33.4
2023-01-04T14:45:25.153Z,33.4
2023-01-04T14:50:26.948Z,33.4
2023-01-04T14:55:28.806Z,33.3
2023-01-04T15:00:30.863Z,33.3
2023-01-04T15:05:37.553Z,33.1
2023-01-04T15:10:39.880Z,33
2023-01-04T15:15:41.691Z,32.9
2023-01-04T15:20:43.760Z,32.9
2023-01-04T15:25:45.853Z,32.9
2023-01-04T15:30:47.912Z,32.9
2023-01-04T15:35:49.947Z,32.9
2023-01-04T15:40:51.768Z,32.8
2023-01-04T15:45:53.840Z,32.8
2023-01-04T15:50:55.639Z,32.8
2023-01-04T15:55:57.709Z,32.7
2023-01-04T16:01:05.998Z,34.1
2023-01-04T16:06:06.741Z,36.7
2023-01-04T16:11:07.320Z,39.1
2023-01-04T16:16:07.983Z,40.7
2023-01-04T16:21:08.642Z,41.6
2023-01-04T16:26:09.058Z,41.7
2023-01-04T16:31:09.528Z,41.9
2023-01-04T16:36:10.266Z,42.9
2023-01-04T16:41:10.938Z,42.9
2023-01-04T16:46:11.597Z,42.6
2023-01-04T16:51:12.095Z,43
2023-01-04T16:56:12.805Z,44.1
2023-01-04T17:01:13.691Z,44.2
2023-01-04T17:06:14.326Z,44.1
2023-01-04T17:16:45.773Z,44.7
2023-01-04T17:21:46.342Z,45.2
2023-01-04T17:26:47.087Z,45.6
2023-01-04T17:31:47.942Z,45.6
2023-01-04T17:36:48.536Z,45.6
2023-01-04T17:41:49.355Z,45.6
2023-01-04T17:46:50.130Z,45.6
2023-01-04T17:51:50.952Z,45.6
2023-01-04T17:56:51.533Z,46
2023-01-04T18:01:52.362Z,46.6
2023-01-04T18:06:53.222Z,47.2
2023-01-04T18:11:54.023Z,47.2
2023-01-04T18:16:54.921Z,46.8
2023-01-04T18:21:55.553Z,44
2023-01-04T18:27:21.302Z,39.4
2023-01-04T18:32:22.371Z,39.1
2023-01-04T18:37:22.758Z,40.9
2023-01-04T18:42:23.350Z,41.2
2023-01-04T18:47:23.974Z,41.2
2023-01-04T18:52:24.627Z,41.2
2023-01-04T18:57:25.241Z,41.2
2023-01-04T19:02:28.071Z,41.1
2023-01-04T19:07:28.562Z,41.1
2023-01-04T19:12:29.170Z,41.1
2023-01-04T19:17:29.816Z,41.1
2023-01-04T19:22:30.447Z,41.1
2023-01-04T19:27:31.070Z,41
2023-01-04T19:32:33.796Z,41
2023-01-04T19:37:34.555Z,40.9
2023-01-04T19:42:35.252Z,40.9
2023-01-04T19:47:35.923Z,40.9
2023-01-04T19:52:36.575Z,40.9
2023-01-04T19:57:37.234Z,40.9
2023-01-04T20:02:38.107Z,40.8
2023-01-04T20:07:38.937Z,40.8
2023-01-04T20:12:39.583Z,40.8
2023-01-04T20:17:40.381Z,40.8
2023-01-04T20:22:41.041Z,40.7
2023-01-04T20:27:41.657Z,40.6
2023-01-04T20:32:42.066Z,40.6
2023-01-04T20:37:42.732Z,40.6
2023-01-04T20:42:43.360Z,40.6
2023-01-04T20:47:43.777Z,40.6
2023-01-04T20:52:44.459Z,40.5
2023-01-04T20:57:45.083Z,40.5
2023-01-04T21:02:45.895Z,40.4
2023-01-04T21:07:46.734Z,40.4
2023-01-04T21:12:47.362Z,40.4
2023-01-04T21:17:47.996Z,40.4
2023-01-04T21:22:48.667Z,40.3
2023-01-04T21:27:49.038Z,40.3
2023-01-04T21:32:49.657Z,40.3
2023-01-04T21:37:50.058Z,40.2
2023-01-04T21:42:50.684Z,40.2
2023-01-04T21:47:51.284Z,40.2
2023-01-04T21:52:51.901Z,40.2
2023-01-04T21:57:52.534Z,40.1
2023-01-04T22:02:53.133Z,40.1
2023-01-04T22:07:53.579Z,40
2023-01-04T22:12:54.178Z,39.9
2023-01-04T22:17:54.841Z,39.9
2023-01-04T22:22:55.489Z,39.9
2023-01-04T22:27:55.849Z,39.8
2023-01-04T22:32:56.227Z,39.8
2023-01-04T22:37:56.811Z,39.7
2023-01-04T22:42:57.447Z,39.7
2023-01-04T22:47:58.049Z,39.7
2023-01-04T22:52:58.638Z,39.7
2023-01-04T22:57:59.218Z,39.6
2023-01-04T23:02:59.938Z,39.6
2023-01-04T23:08:00.532Z,39.6
2023-01-04T23:13:00.911Z,39.6
2023-01-04T23:18:01.476Z,39.5
2023-01-04T23:23:01.873Z,39.5
2023-01-04T23:28:02.196Z,39.4
2023-01-04T23:33:02.774Z,39.4
2023-01-04T23:38:03.352Z,39.4
2023-01-04T23:43:03.716Z,39.4
2023-01-04T23:48:04.028Z,39.3
2023-01-04T23:53:04.603Z,39.3
2023-01-04T23:58:05.221Z,39.2
